Crew | Aerofun Virtual



 METAR AND TAF INFORMATION
METAR FOR CYBQ
ADDS - METARS form results

(1529 UTC 24 May 2019)
Data provider http://aviationweather.gov/metar/data/
 
METAR text: CYBQ 241500Z AUTO 09008KT 010V120 9SM CLR 01/M06 A3010 RMK SLP213
Conditions at: CYBQ (TADOULE LAKE , MB, CA) observed 1500 UTC 24 May 2019
Temperature: 1.0°C (34°F)
Dewpoint: -6.0°C (21°F) [RH = 59%]
Pressure (altimeter): 30.10 inches Hg (1019.4 mb)
[Sea-level pressure: 1021.3 mb]
Winds: from the E (90 degrees) at 9 MPH (8 knots; 4.1 m/s)
Visibility: 9 miles (14 km)
Ceiling: at least 12,000 feet AGL
Clouds: sky clear below 12,000 feet AGL
Weather: no significant weather observed at this time

 AIRPORT MAP

 RUNWAY INFORMATION
Runway 06 Runway length 3200 ft Runway width 100 ft
Runway elevation 0 ft Runway displaced threshold 0 ft Runway heading 0
Runway 24 Runway length 3200 ft Runway width 100 ft
Runway elevation 0 ft Runway displaced threshold 0 ft Runway heading 0
Runway 07 Runway length 0 ft Runway width 0 ft
Runway elevation 923 ft Runway displaced threshold 0 ft Runway heading 0
Runway 25 Runway length 0 ft Runway width 0 ft
Runway elevation 872 ft Runway displaced threshold 0 ft Runway heading 0

 AIRPORT FREQUENCIES

 AIRPORT NEAR NAVIGATION AIDS
Type NDB Name Tadoule Lake Frequency 389 KHZ